KLUF/LUF METAR and TAF weather

Enter ICAO airport designator
Station Type Date Time Source
KLUF METAR 2019/10/23 11:58 UTC NOAA

KLUF 231158Z AUTO 00000KT 10SM CLR 15/01 A2991 RMK AO2 SLP119 T01530011 10212 20151 55001 $


Station Type Date Time Source
KLUF Decoded METAR 2019/10/23 11:58 UTC NOAA

Luke Air Force Base / Phoenix, AZ, United States (KLUF) 33-32N 112-23W 332M
Oct 23, 2019 - 07:58 AM EDT / 2019.10.23 1158 UTC
Wind: Calm:0
Visibility: 10 mile(s):0
Sky conditions: clear
Temperature: 59.5 F (15.3 C)
Dew Point: 34.0 F (1.1 C)
Relative Humidity: 38%
Pressure (altimeter): 29.91 in. Hg (1012 hPa)
Pressure tendency: 0.00 inches (0.1 hPa) lower than three hours ago
ob: KLUF 231158Z AUTO 00000KT 10SM CLR 15/01 A2991 RMK AO2 SLP119 T01530011 10212 20151 55001
cycle: 12

Station Type Date Time Source
KLUF TAF 2019/10/23 12:59 UTC NOAA

TAF KLUF 231200Z 2312/2418 VRB06KT 9999 SKC QNH2979INS
BECMG 2416/2417 04010G20KT 9999 FEW250 QNH3001INS TX32/2323Z TN14/2414Z

Example: see airport list